createdAt,value
2023-05-21T00:00:15.265Z,54.45
2023-05-21T00:02:44.682Z,54.09
2023-05-21T00:05:15.497Z,53.67
2023-05-21T00:07:46.162Z,53.92
2023-05-21T00:10:15.423Z,53.64
2023-05-21T00:12:45.356Z,53.77
2023-05-21T00:15:15.313Z,53.69
2023-05-21T00:17:44.511Z,53.49
2023-05-21T00:20:14.253Z,53.58
2023-05-21T00:22:43.767Z,53.62
2023-05-21T00:25:13.507Z,53.54
2023-05-21T00:27:41.951Z,53.56
2023-05-21T00:30:13.384Z,53.22
2023-05-21T00:32:41.907Z,53.29
2023-05-21T00:35:11.859Z,53.05
2023-05-21T00:37:40.786Z,53.20
2023-05-21T00:40:11.996Z,53.07
2023-05-21T00:42:41.235Z,53.25
2023-05-21T00:45:10.587Z,53.06
2023-05-21T00:47:42.932Z,53.13
2023-05-21T00:50:12.217Z,53.25
2023-05-21T00:52:43.001Z,52.97
2023-05-21T00:55:12.248Z,53.05
2023-05-21T00:57:41.325Z,53.28
2023-05-21T01:00:12.332Z,52.94
2023-05-21T01:02:42.581Z,52.89
2023-05-21T01:05:11.491Z,53.13
2023-05-21T01:07:43.513Z,52.87
2023-05-21T01:10:14.201Z,53.09
2023-05-21T01:12:44.775Z,52.88
2023-05-21T01:15:14.702Z,52.86
2023-05-21T01:17:45.939Z,52.95
2023-05-21T01:20:18.646Z,52.88
2023-05-21T01:22:55.377Z,52.76
2023-05-21T01:25:26.894Z,52.79
2023-05-21T01:27:56.036Z,52.75
2023-05-21T01:30:26.517Z,52.67
2023-05-21T01:33:00.042Z,52.85
2023-05-21T01:35:34.166Z,53.07
2023-05-21T01:38:13.456Z,52.92
2023-05-21T01:40:49.051Z,53.07
2023-05-21T01:43:18.327Z,53.13
2023-05-21T01:45:49.304Z,53.27
2023-05-21T01:48:19.685Z,53.35
2023-05-21T01:50:50.290Z,53.24
2023-05-21T01:53:20.331Z,53.56
2023-05-21T01:55:48.964Z,53.73
2023-05-21T01:58:19.034Z,53.68
2023-05-21T02:00:47.918Z,53.86
2023-05-21T02:03:17.124Z,53.87
2023-05-21T02:05:47.448Z,53.86
2023-05-21T02:08:17.055Z,54.26
2023-05-21T02:10:46.971Z,54.10
2023-05-21T02:13:16.387Z,54.22
2023-05-21T02:15:45.292Z,54.20
2023-05-21T02:18:16.597Z,54.19
2023-05-21T02:20:46.797Z,54.23
2023-05-21T02:23:15.157Z,54.28
2023-05-21T02:25:44.380Z,54.35
2023-05-21T02:28:14.296Z,54.56
2023-05-21T02:30:42.630Z,54.40
2023-05-21T02:33:14.567Z,54.44
2023-05-21T02:35:43.874Z,54.65
2023-05-21T02:38:14.626Z,54.60
2023-05-21T02:40:42.973Z,54.97
2023-05-21T02:43:13.095Z,54.87
2023-05-21T02:45:45.197Z,54.87
2023-05-21T02:48:13.755Z,54.77
2023-05-21T02:50:50.585Z,54.87
2023-05-21T02:53:19.084Z,55.00
2023-05-21T02:55:48.259Z,55.14
2023-05-21T02:58:16.708Z,54.93
2023-05-21T03:00:47.882Z,55.01
2023-05-21T03:03:16.545Z,54.91
2023-05-21T03:05:45.822Z,55.04
2023-05-21T03:08:15.782Z,55.24
2023-05-21T03:10:44.984Z,55.29
2023-05-21T03:13:13.786Z,55.50
2023-05-21T03:15:43.977Z,55.46
2023-05-21T03:18:14.009Z,55.60
2023-05-21T03:20:45.752Z,55.78
2023-05-21T03:23:16.591Z,55.96
2023-05-21T03:25:47.430Z,55.85
2023-05-21T03:28:17.621Z,55.94
2023-05-21T03:30:51.453Z,55.96
2023-05-21T03:33:44.090Z,55.99
2023-05-21T03:36:22.470Z,56.10
2023-05-21T03:38:50.871Z,56.28
2023-05-21T03:41:20.911Z,56.54
2023-05-21T03:43:53.617Z,56.47
2023-05-21T03:46:26.810Z,56.48
2023-05-21T03:49:22.748Z,56.97
2023-05-21T03:51:55.850Z,57.13
2023-05-21T03:54:25.694Z,57.37
2023-05-21T03:56:58.068Z,57.44
2023-05-21T03:59:27.327Z,57.71
2023-05-21T04:01:56.822Z,57.93
2023-05-21T04:04:29.311Z,58.21
2023-05-21T04:06:59.173Z,58.18
2023-05-21T04:09:27.664Z,58.55
2023-05-21T04:11:56.920Z,58.80
2023-05-21T04:14:25.799Z,59.00
2023-05-21T04:16:54.848Z,59.34
2023-05-21T04:19:23.346Z,59.51
2023-05-21T04:21:54.289Z,59.65
2023-05-21T04:24:23.349Z,59.87
2023-05-21T04:27:07.707Z,59.78
2023-05-21T04:29:38.543Z,60.10
2023-05-21T04:32:07.399Z,60.28
2023-05-21T04:34:36.571Z,60.39
2023-05-21T04:37:09.365Z,60.30
2023-05-21T04:39:39.566Z,60.47
2023-05-21T04:42:10.991Z,60.78
2023-05-21T04:44:41.376Z,61.03
2023-05-21T04:47:12.309Z,61.36
2023-05-21T04:49:41.657Z,61.54
2023-05-21T04:52:12.114Z,61.60
2023-05-21T04:54:42.467Z,61.88
2023-05-21T04:57:10.883Z,61.87
2023-05-21T04:59:40.544Z,61.92
2023-05-21T05:02:09.032Z,61.96
2023-05-21T05:04:38.342Z,62.18
2023-05-21T05:07:07.433Z,62.13
2023-05-21T05:09:37.939Z,62.08
2023-05-21T05:12:07.355Z,62.17
2023-05-21T05:14:36.533Z,61.91
2023-05-21T05:17:08.101Z,61.83
2023-05-21T05:19:38.022Z,61.82
2023-05-21T05:22:06.585Z,62.02
2023-05-21T05:24:35.804Z,61.80
2023-05-21T05:27:06.037Z,62.03
2023-05-21T05:29:34.870Z,61.76
2023-05-21T05:32:04.336Z,61.88
2023-05-21T05:34:33.887Z,61.72
2023-05-21T05:37:04.304Z,61.56
2023-05-21T05:39:35.638Z,61.61
2023-05-21T05:42:06.040Z,61.58
2023-05-21T05:44:35.423Z,61.84
2023-05-21T05:47:03.915Z,61.62
2023-05-21T05:49:33.291Z,61.54
2023-05-21T05:52:03.045Z,61.61
2023-05-21T05:54:31.440Z,61.86
2023-05-21T05:57:01.250Z,61.75
2023-05-21T05:59:31.150Z,61.72
2023-05-21T06:02:02.560Z,61.62
2023-05-21T06:04:31.490Z,61.67
2023-05-21T06:07:01.898Z,61.30
2023-05-21T06:09:30.734Z,61.27
2023-05-21T06:12:00.267Z,61.15
2023-05-21T06:14:28.784Z,61.24
2023-05-21T06:16:59.232Z,61.31
2023-05-21T06:19:29.404Z,61.24
2023-05-21T06:21:58.049Z,61.08
2023-05-21T06:24:27.586Z,61.30
2023-05-21T06:26:56.539Z,61.14
2023-05-21T06:29:24.982Z,60.99
2023-05-21T06:31:54.571Z,60.97
2023-05-21T06:34:24.348Z,60.91
2023-05-21T06:36:54.143Z,60.89
2023-05-21T06:39:22.587Z,60.52
2023-05-21T06:41:52.165Z,60.64
2023-05-21T06:44:47.050Z,60.27
2023-05-21T06:47:39.122Z,60.30
2023-05-21T06:50:09.802Z,60.31
2023-05-21T06:52:39.525Z,60.08
2023-05-21T06:55:09.502Z,59.84
2023-05-21T06:57:59.338Z,59.62
2023-05-21T07:00:27.933Z,59.07
2023-05-21T07:02:57.294Z,58.80
2023-05-21T07:05:28.545Z,58.41
2023-05-21T07:07:58.550Z,58.34
2023-05-21T07:10:27.364Z,57.96
2023-05-21T07:12:55.782Z,57.54
2023-05-21T07:15:25.427Z,57.06
2023-05-21T07:17:54.014Z,56.70
2023-05-21T07:20:23.522Z,56.92
2023-05-21T07:22:56.556Z,56.34
2023-05-21T07:25:26.691Z,56.14
2023-05-21T07:27:55.152Z,55.92
2023-05-21T07:30:24.791Z,55.96
2023-05-21T07:32:54.321Z,55.86
2023-05-21T07:35:23.080Z,55.61
2023-05-21T07:37:52.265Z,55.50
2023-05-21T07:40:22.046Z,55.24
2023-05-21T07:42:52.737Z,54.91
2023-05-21T07:45:23.729Z,54.94
2023-05-21T07:47:53.109Z,54.36
2023-05-21T07:50:22.402Z,54.12
2023-05-21T07:52:51.032Z,53.91
2023-05-21T07:55:22.426Z,53.95
2023-05-21T07:57:52.445Z,53.71
2023-05-21T08:00:27.804Z,53.55
2023-05-21T08:02:58.757Z,53.69
2023-05-21T08:05:28.650Z,52.69
2023-05-21T08:07:57.163Z,51.89
2023-05-21T08:10:27.937Z,51.81
2023-05-21T08:12:56.382Z,51.48
2023-05-21T08:15:25.258Z,50.91
2023-05-21T08:17:56.002Z,50.54
2023-05-21T08:20:24.723Z,50.15
2023-05-21T08:22:55.741Z,49.76
2023-05-21T08:25:24.971Z,49.40
2023-05-21T08:27:55.855Z,49.03
2023-05-21T08:30:24.392Z,48.98
2023-05-21T08:32:56.615Z,48.34
2023-05-21T08:35:27.964Z,48.56
2023-05-21T08:38:07.663Z,48.29
2023-05-21T08:40:47.862Z,48.25
2023-05-21T08:43:19.247Z,47.60
2023-05-21T08:45:55.029Z,47.54
2023-05-21T08:48:27.877Z,47.32
2023-05-21T08:50:57.501Z,47.20
2023-05-21T08:53:32.435Z,46.64
2023-05-21T08:56:02.718Z,46.46
2023-05-21T08:58:45.740Z,46.30
2023-05-21T09:01:18.715Z,45.96
2023-05-21T09:03:57.136Z,45.34
2023-05-21T09:06:28.784Z,44.28
2023-05-21T09:09:03.086Z,44.34
2023-05-21T09:11:43.777Z,44.08
2023-05-21T09:14:15.670Z,43.72
2023-05-21T09:17:21.246Z,43.24
2023-05-21T09:20:13.632Z,42.68
2023-05-21T09:22:49.681Z,42.01
2023-05-21T09:25:22.968Z,41.33
2023-05-21T09:27:52.624Z,40.72
2023-05-21T09:30:26.037Z,40.07
2023-05-21T09:32:59.263Z,39.35
2023-05-21T09:35:28.861Z,39.23
2023-05-21T09:37:58.049Z,38.89
2023-05-21T09:40:26.526Z,38.62
2023-05-21T09:42:56.949Z,38.59
2023-05-21T09:45:28.507Z,38.34
2023-05-21T09:48:00.524Z,38.05
2023-05-21T09:50:29.543Z,38.21
2023-05-21T09:52:59.043Z,38.41
2023-05-21T09:55:27.865Z,38.19
2023-05-21T09:57:59.470Z,37.99
2023-05-21T10:00:30.095Z,37.32
2023-05-21T10:03:02.969Z,36.90
2023-05-21T10:05:32.053Z,36.42
2023-05-21T10:08:02.349Z,36.39
2023-05-21T10:10:32.100Z,36.18
2023-05-21T10:13:07.156Z,36.04
2023-05-21T10:15:40.253Z,35.95
2023-05-21T10:18:12.577Z,35.65
2023-05-21T10:20:42.177Z,35.23
2023-05-21T10:23:14.831Z,35.06
2023-05-21T10:25:43.652Z,34.99
2023-05-21T10:28:14.861Z,35.07
2023-05-21T10:30:46.239Z,35.26
2023-05-21T10:33:18.049Z,35.03
2023-05-21T10:35:48.221Z,35.08
2023-05-21T10:38:21.021Z,35.32
2023-05-21T10:40:50.501Z,35.20
2023-05-21T10:43:55.749Z,35.21
2023-05-21T10:46:43.238Z,35.87
2023-05-21T10:49:25.906Z,35.75
2023-05-21T10:52:04.602Z,35.85
2023-05-21T10:55:09.284Z,35.79
2023-05-21T10:58:06.099Z,35.46
2023-05-21T11:00:35.551Z,35.51
2023-05-21T11:03:06.479Z,35.21
2023-05-21T11:05:43.008Z,36.23
2023-05-21T11:08:23.977Z,35.85
2023-05-21T11:10:58.060Z,36.28
2023-05-21T11:13:31.916Z,35.72
2023-05-21T11:16:14.964Z,35.80
2023-05-21T11:19:01.918Z,35.91
2023-05-21T11:21:31.787Z,36.03
2023-05-21T11:24:06.485Z,36.12
2023-05-21T11:27:06.956Z,36.21
2023-05-21T11:29:42.003Z,35.89
2023-05-21T11:32:12.247Z,35.48
2023-05-21T11:34:49.180Z,35.57
2023-05-21T11:37:42.023Z,34.62
2023-05-21T11:40:30.941Z,34.31
2023-05-21T11:43:00.327Z,33.44
2023-05-21T11:45:34.742Z,33.47
2023-05-21T11:48:06.435Z,32.96
2023-05-21T11:50:37.516Z,32.82
2023-05-21T11:53:09.556Z,32.03
2023-05-21T11:55:39.922Z,31.95
2023-05-21T11:58:11.392Z,31.31
2023-05-21T12:00:41.754Z,31.50
2023-05-21T12:03:13.024Z,31.94
2023-05-21T12:05:48.065Z,32.48
2023-05-21T12:08:25.254Z,32.49
2023-05-21T12:10:58.360Z,32.07
2023-05-21T12:13:27.451Z,31.91
2023-05-21T12:15:56.417Z,31.74
2023-05-21T12:18:25.285Z,31.92
2023-05-21T12:20:55.113Z,31.60
2023-05-21T12:23:25.776Z,31.15
2023-05-21T12:25:54.384Z,31.33
2023-05-21T12:28:25.020Z,31.02
2023-05-21T12:30:54.616Z,30.64
2023-05-21T12:33:26.373Z,30.91
2023-05-21T12:35:56.572Z,30.71
2023-05-21T12:38:26.872Z,30.78
2023-05-21T12:40:55.301Z,31.56
2023-05-21T12:43:24.173Z,31.10
2023-05-21T12:45:52.867Z,31.12
2023-05-21T12:48:22.264Z,31.36
2023-05-21T12:50:52.759Z,31.17
2023-05-21T12:53:24.149Z,31.36
2023-05-21T12:55:56.275Z,31.13
2023-05-21T12:58:25.533Z,31.12
2023-05-21T13:00:56.440Z,31.15
2023-05-21T13:03:25.403Z,31.17
2023-05-21T13:06:00.098Z,30.79
2023-05-21T13:08:30.394Z,30.67
2023-05-21T13:11:00.587Z,30.58
2023-05-21T13:13:28.992Z,30.95
2023-05-21T13:16:00.969Z,31.24
2023-05-21T13:18:29.398Z,30.45
2023-05-21T13:20:58.106Z,30.69
2023-05-21T13:23:26.914Z,30.65
2023-05-21T13:25:57.197Z,30.65
2023-05-21T13:28:25.624Z,30.78
2023-05-21T13:30:56.196Z,30.17
2023-05-21T13:33:25.000Z,30.13
2023-05-21T13:35:53.595Z,30.20
2023-05-21T13:38:22.235Z,29.68
2023-05-21T13:40:50.638Z,29.46
2023-05-21T13:43:21.883Z,29.81
2023-05-21T13:45:51.142Z,29.84
2023-05-21T13:48:19.668Z,29.55
2023-05-21T13:50:49.550Z,30.15
2023-05-21T13:53:17.921Z,30.26
2023-05-21T13:55:47.060Z,30.71
2023-05-21T13:58:16.050Z,30.47
2023-05-21T14:00:45.835Z,30.57
2023-05-21T14:03:15.701Z,30.60
2023-05-21T14:05:44.230Z,30.99
2023-05-21T14:08:12.783Z,31.12
2023-05-21T14:10:41.700Z,31.44
2023-05-21T14:13:19.776Z,30.96
2023-05-21T14:15:51.090Z,31.57
2023-05-21T14:18:19.804Z,31.35
2023-05-21T14:20:48.216Z,31.45
2023-05-21T14:23:17.124Z,31.27
2023-05-21T14:25:45.700Z,30.71
2023-05-21T14:28:14.511Z,31.13
2023-05-21T14:30:43.986Z,30.90
2023-05-21T14:33:13.779Z,31.14
2023-05-21T14:35:44.497Z,31.01
2023-05-21T14:38:13.311Z,30.84
2023-05-21T14:40:42.945Z,30.85
2023-05-21T14:43:11.377Z,30.67
2023-05-21T14:45:41.042Z,30.36
2023-05-21T14:48:09.964Z,30.27
2023-05-21T14:50:40.304Z,30.35
2023-05-21T14:53:12.335Z,30.44
2023-05-21T14:55:40.920Z,30.54
2023-05-21T14:58:10.483Z,30.62
2023-05-21T15:00:39.471Z,30.39
2023-05-21T15:03:09.518Z,30.09
2023-05-21T15:05:39.653Z,30.18
2023-05-21T15:08:09.898Z,30.41
2023-05-21T15:10:38.363Z,30.46
2023-05-21T15:13:07.270Z,30.11
2023-05-21T15:15:37.086Z,29.87
2023-05-21T15:18:05.764Z,30.12
2023-05-21T15:20:34.707Z,29.58
2023-05-21T15:23:16.059Z,29.83
2023-05-21T15:25:46.443Z,29.36
2023-05-21T15:28:15.324Z,29.54
2023-05-21T15:30:44.032Z,30.11
2023-05-21T15:33:13.105Z,30.20
2023-05-21T15:35:42.190Z,30.07
2023-05-21T15:38:13.465Z,30.37
2023-05-21T15:40:42.926Z,30.16
2023-05-21T15:43:11.351Z,29.86
2023-05-21T15:45:40.432Z,29.65
2023-05-21T15:48:09.042Z,29.85
2023-05-21T15:50:38.106Z,29.59
2023-05-21T15:53:07.518Z,29.81
2023-05-21T15:55:37.605Z,29.73
2023-05-21T15:58:07.493Z,30.08
2023-05-21T16:00:36.145Z,29.83
2023-05-21T16:03:06.165Z,30.15
2023-05-21T16:05:35.330Z,30.02
2023-05-21T16:08:04.411Z,29.99
2023-05-21T16:10:32.880Z,30.03
2023-05-21T16:13:03.662Z,30.44
2023-05-21T16:15:32.482Z,30.11
2023-05-21T16:18:01.390Z,30.56
2023-05-21T16:20:30.950Z,30.83
2023-05-21T16:23:00.233Z,31.08
2023-05-21T16:25:28.645Z,31.45
2023-05-21T16:27:57.910Z,31.77
2023-05-21T16:30:27.722Z,31.80
2023-05-21T16:32:57.036Z,31.65
2023-05-21T16:35:25.647Z,31.96
2023-05-21T16:37:54.267Z,31.43
2023-05-21T16:40:23.252Z,31.51
2023-05-21T16:42:52.439Z,31.56
2023-05-21T16:45:21.603Z,31.48
2023-05-21T16:47:52.491Z,31.58
2023-05-21T16:50:21.954Z,31.86
2023-05-21T16:52:50.434Z,31.70
2023-05-21T16:55:19.731Z,31.33
2023-05-21T16:57:48.570Z,31.59
2023-05-21T17:00:17.525Z,31.86
2023-05-21T17:02:46.515Z,31.61
2023-05-21T17:05:16.685Z,31.73
2023-05-21T17:07:49.782Z,32.10
2023-05-21T17:10:18.516Z,32.31
2023-05-21T17:12:47.706Z,32.30
2023-05-21T17:15:16.668Z,32.66
2023-05-21T17:17:46.044Z,32.63
2023-05-21T17:20:16.124Z,32.43
2023-05-21T17:22:45.612Z,32.56
2023-05-21T17:25:14.321Z,33.06
2023-05-21T17:27:43.856Z,32.78
2023-05-21T17:30:13.207Z,33.31
2023-05-21T17:32:42.172Z,33.35
2023-05-21T17:35:11.059Z,33.41
2023-05-21T17:37:41.334Z,34.14
2023-05-21T17:40:11.161Z,34.15
2023-05-21T17:42:40.052Z,34.51
2023-05-21T17:45:09.748Z,34.85
2023-05-21T17:47:38.135Z,34.83
2023-05-21T17:50:09.042Z,34.94
2023-05-21T17:52:37.497Z,34.98
2023-05-21T17:55:09.238Z,34.93
2023-05-21T17:57:37.614Z,35.02
2023-05-21T18:00:08.528Z,35.41
2023-05-21T18:02:43.426Z,35.26
2023-05-21T18:05:11.847Z,35.43
2023-05-21T18:07:41.669Z,35.51
2023-05-21T18:10:12.029Z,36.00
2023-05-21T18:12:40.844Z,36.20
2023-05-21T18:15:10.140Z,36.03
2023-05-21T18:17:39.446Z,36.36
2023-05-21T18:20:09.446Z,36.53
2023-05-21T18:22:38.352Z,36.60
2023-05-21T18:25:08.858Z,36.74
2023-05-21T18:27:41.464Z,36.78
2023-05-21T18:30:11.191Z,36.85
2023-05-21T18:32:39.695Z,36.91
2023-05-21T18:35:11.159Z,37.23
2023-05-21T18:37:42.111Z,37.42
2023-05-21T18:40:12.452Z,37.54
2023-05-21T18:42:42.820Z,37.52
2023-05-21T18:45:12.985Z,37.75
2023-05-21T18:47:43.308Z,37.75
2023-05-21T18:50:13.263Z,37.83
2023-05-21T18:52:42.618Z,37.85
2023-05-21T18:55:11.258Z,37.88
2023-05-21T18:57:41.040Z,38.28
2023-05-21T19:00:11.798Z,38.39
2023-05-21T19:02:41.126Z,38.50
2023-05-21T19:05:10.874Z,38.46
2023-05-21T19:07:41.139Z,38.68
2023-05-21T19:10:13.369Z,38.84
2023-05-21T19:12:42.822Z,38.54
2023-05-21T19:15:13.766Z,38.82
2023-05-21T19:17:42.605Z,39.09
2023-05-21T19:20:11.970Z,39.29
2023-05-21T19:22:40.331Z,39.59
2023-05-21T19:25:10.939Z,39.85
2023-05-21T19:27:39.347Z,39.88
2023-05-21T19:30:09.625Z,40.15
2023-05-21T19:32:39.488Z,40.31
2023-05-21T19:35:09.890Z,40.53
2023-05-21T19:37:38.724Z,40.56
2023-05-21T19:40:08.966Z,40.86
2023-05-21T19:42:38.265Z,40.93
2023-05-21T19:45:09.493Z,40.92
2023-05-21T19:47:41.429Z,41.03
2023-05-21T19:50:11.824Z,41.06
2023-05-21T19:52:42.085Z,41.13
2023-05-21T19:55:10.981Z,41.15
2023-05-21T19:57:40.392Z,41.55
2023-05-21T20:00:11.481Z,41.80
2023-05-21T20:02:43.773Z,41.85
2023-05-21T20:05:12.236Z,42.00
2023-05-21T20:07:41.296Z,41.75
2023-05-21T20:10:10.389Z,42.06
2023-05-21T20:12:39.247Z,42.39
2023-05-21T20:15:09.255Z,42.12
2023-05-21T20:17:39.357Z,42.20
2023-05-21T20:20:13.068Z,42.74
2023-05-21T20:22:41.631Z,42.60
2023-05-21T20:25:10.719Z,42.64
2023-05-21T20:27:40.165Z,42.89
2023-05-21T20:30:10.020Z,42.93
2023-05-21T20:32:38.969Z,43.12
2023-05-21T20:35:09.867Z,43.32
2023-05-21T20:37:41.058Z,43.33
2023-05-21T20:40:14.722Z,43.54
2023-05-21T20:42:45.051Z,43.25
2023-05-21T20:45:16.153Z,43.49
2023-05-21T20:47:44.826Z,43.58
2023-05-21T20:50:13.667Z,43.74
2023-05-21T20:52:45.504Z,43.84
2023-05-21T20:55:15.424Z,43.97
2023-05-21T20:57:44.424Z,44.09
2023-05-21T21:00:15.877Z,44.18
2023-05-21T21:02:45.477Z,44.61
2023-05-21T21:05:13.884Z,44.78
2023-05-21T21:07:46.042Z,44.60
2023-05-21T21:10:15.075Z,44.69
2023-05-21T21:12:43.554Z,44.68
2023-05-21T21:15:12.921Z,45.16
2023-05-21T21:17:41.643Z,44.93
2023-05-21T21:20:13.169Z,44.85
2023-05-21T21:22:42.970Z,45.56
2023-05-21T21:25:12.816Z,45.41
2023-05-21T21:27:42.435Z,45.33
2023-05-21T21:30:12.844Z,45.51
2023-05-21T21:32:43.212Z,45.67
2023-05-21T21:35:11.695Z,45.37
2023-05-21T21:37:41.128Z,45.69
2023-05-21T21:40:11.839Z,45.34
2023-05-21T21:42:42.087Z,45.79
2023-05-21T21:45:11.815Z,46.24
2023-05-21T21:47:41.636Z,46.02
2023-05-21T21:50:10.710Z,45.84
2023-05-21T21:52:41.988Z,46.06
2023-05-21T21:55:12.562Z,45.89
2023-05-21T21:57:41.554Z,45.98
2023-05-21T22:00:16.208Z,46.31
2023-05-21T22:02:46.501Z,46.28
2023-05-21T22:05:16.442Z,46.29
2023-05-21T22:07:47.031Z,46.63
2023-05-21T22:10:18.620Z,46.86
2023-05-21T22:12:47.132Z,46.76
2023-05-21T22:15:21.352Z,46.99
2023-05-21T22:17:49.987Z,46.70
2023-05-21T22:20:19.581Z,46.45
2023-05-21T22:22:48.027Z,46.88
2023-05-21T22:25:19.685Z,46.82
2023-05-21T22:27:48.522Z,46.84
2023-05-21T22:30:16.926Z,47.17
2023-05-21T22:32:47.427Z,47.25
2023-05-21T22:35:15.906Z,47.44
2023-05-21T22:37:45.147Z,47.52
2023-05-21T22:40:13.732Z,47.48
2023-05-21T22:42:47.830Z,47.36
2023-05-21T22:45:16.773Z,47.79
2023-05-21T22:47:45.198Z,47.84
2023-05-21T22:50:14.839Z,47.48
2023-05-21T22:52:43.338Z,47.49
2023-05-21T22:55:12.344Z,47.96
2023-05-21T22:57:42.957Z,47.91
2023-05-21T23:00:12.730Z,48.29
2023-05-21T23:02:41.693Z,48.12
2023-05-21T23:05:10.506Z,48.17
2023-05-21T23:07:39.528Z,48.56
2023-05-21T23:10:10.409Z,48.91
2023-05-21T23:12:38.769Z,48.95
2023-05-21T23:15:11.853Z,48.71
2023-05-21T23:17:40.497Z,48.59
2023-05-21T23:20:10.964Z,49.13
2023-05-21T23:22:40.070Z,49.35
2023-05-21T23:25:10.774Z,49.50
2023-05-21T23:27:39.737Z,49.09
2023-05-21T23:30:11.630Z,49.52
2023-05-21T23:32:41.325Z,49.54
2023-05-21T23:35:10.902Z,49.38
2023-05-21T23:37:40.957Z,49.60
2023-05-21T23:40:10.396Z,49.95
2023-05-21T23:42:39.630Z,49.75
2023-05-21T23:45:10.945Z,49.87
2023-05-21T23:47:39.426Z,50.38
2023-05-21T23:50:10.086Z,50.14
2023-05-21T23:52:38.850Z,50.58
2023-05-21T23:55:09.809Z,50.44
2023-05-21T23:57:38.406Z,50.47
